createdAt,value
2018-03-20T00:02:08.973Z,61.50
2018-03-20T00:04:36.573Z,62.00
2018-03-20T00:07:04.199Z,61.70
2018-03-20T00:09:32.622Z,62.40
2018-03-20T00:12:01.043Z,62.00
2018-03-20T00:14:28.689Z,61.90
2018-03-20T00:16:57.058Z,61.90
2018-03-20T00:19:26.388Z,62.10
2018-03-20T00:21:54.763Z,62.30
2018-03-20T00:24:23.171Z,62.30
2018-03-20T00:26:50.926Z,62.30
2018-03-20T00:29:18.578Z,62.30
2018-03-20T00:31:47.072Z,62.70
2018-03-20T00:34:14.741Z,62.90
2018-03-20T00:36:42.611Z,62.30
2018-03-20T00:39:11.403Z,62.70
2018-03-20T00:41:40.869Z,62.70
2018-03-20T00:44:12.007Z,63.30
2018-03-20T00:46:40.649Z,63.30
2018-03-20T00:49:08.361Z,62.80
2018-03-20T00:51:36.149Z,62.70
2018-03-20T00:54:05.292Z,62.10
2018-03-20T00:56:33.091Z,62.10
2018-03-20T00:59:00.854Z,61.60
2018-03-20T01:01:28.851Z,61.60
2018-03-20T01:03:56.532Z,61.10
2018-03-20T01:06:24.174Z,61.10
2018-03-20T01:08:52.540Z,61.30
2018-03-20T01:11:20.168Z,61.00
2018-03-20T01:13:48.638Z,60.80
2018-03-20T01:16:16.326Z,60.70
2018-03-20T01:18:44.167Z,61.20
2018-03-20T01:21:11.880Z,61.80
2018-03-20T01:23:39.650Z,62.10
2018-03-20T01:26:07.346Z,61.90
2018-03-20T01:28:38.371Z,62.30
2018-03-20T01:31:07.159Z,62.50
2018-03-20T01:33:36.385Z,62.10
2018-03-20T01:36:04.139Z,62.00
2018-03-20T01:38:32.140Z,61.90
2018-03-20T01:40:59.760Z,61.60
2018-03-20T01:43:28.186Z,61.90
2018-03-20T01:45:55.978Z,61.80
2018-03-20T01:48:23.866Z,62.30
2018-03-20T01:50:51.614Z,63.00
2018-03-20T01:53:19.371Z,63.00
2018-03-20T01:55:47.560Z,63.30
2018-03-20T01:58:15.988Z,63.40
2018-03-20T02:00:44.136Z,62.60
2018-03-20T02:03:12.504Z,62.60
2018-03-20T02:05:40.094Z,62.70
2018-03-20T02:08:08.493Z,63.50
2018-03-20T02:10:36.861Z,63.10
2018-03-20T02:13:04.475Z,63.10
2018-03-20T02:15:32.137Z,63.50
2018-03-20T02:17:59.727Z,63.40
2018-03-20T02:20:27.345Z,63.80
2018-03-20T02:22:55.735Z,65.30
2018-03-20T02:25:23.395Z,65.30
2018-03-20T02:27:51.749Z,66.30
2018-03-20T02:30:20.121Z,66.60
2018-03-20T02:32:47.758Z,66.50
2018-03-20T02:35:15.365Z,66.90
2018-03-20T02:37:42.990Z,67.60
2018-03-20T02:40:10.612Z,67.90
2018-03-20T02:42:39.044Z,69.00
2018-03-20T02:45:06.769Z,69.00
2018-03-20T02:47:35.612Z,70.20
2018-03-20T02:50:03.268Z,70.20
2018-03-20T02:52:30.899Z,71.00
2018-03-20T02:54:59.294Z,71.60
2018-03-20T02:57:26.871Z,71.50
2018-03-20T02:59:54.967Z,72.20
2018-03-20T03:02:22.581Z,72.80
2018-03-20T03:04:50.941Z,74.00
2018-03-20T03:07:18.556Z,73.80
2018-03-20T03:09:46.218Z,74.20
2018-03-20T03:12:13.799Z,74.30
2018-03-20T03:14:41.408Z,74.60
2018-03-20T03:17:09.084Z,74.90
2018-03-20T03:19:36.730Z,75.50
2018-03-20T03:22:04.426Z,75.70
2018-03-20T03:24:32.033Z,75.80
2018-03-20T03:26:59.686Z,76.30
2018-03-20T03:29:27.299Z,76.00
2018-03-20T03:31:54.933Z,76.10
2018-03-20T03:34:22.569Z,76.40
2018-03-20T03:36:51.247Z,76.70
2018-03-20T03:39:18.851Z,76.70
2018-03-20T03:41:46.502Z,77.00
2018-03-20T03:44:14.115Z,77.20
2018-03-20T03:46:41.705Z,77.60
2018-03-20T03:49:10.100Z,78.40
2018-03-20T03:51:38.540Z,78.60
2018-03-20T03:54:06.120Z,78.60
2018-03-20T03:56:33.722Z,78.50
2018-03-20T03:59:01.370Z,79.10
2018-03-20T04:01:29.007Z,79.80
2018-03-20T04:03:56.576Z,80.40
2018-03-20T04:06:24.254Z,81.50
2018-03-20T04:08:52.322Z,82.40
2018-03-20T04:11:19.946Z,83.20
2018-03-20T04:13:47.735Z,83.70
2018-03-20T04:16:15.378Z,83.90
2018-03-20T04:18:42.970Z,84.50
2018-03-20T04:21:10.591Z,84.50
2018-03-20T04:23:38.948Z,85.30
2018-03-20T04:26:06.556Z,85.30
2018-03-20T04:28:34.164Z,85.50
2018-03-20T04:31:02.659Z,85.60
2018-03-20T04:33:30.241Z,85.90
2018-03-20T04:35:58.601Z,86.90
2018-03-20T04:38:26.174Z,86.40
2018-03-20T04:40:53.762Z,86.60
2018-03-20T04:43:22.148Z,87.60
2018-03-20T04:45:50.538Z,88.30
2018-03-20T04:48:18.151Z,88.30
2018-03-20T04:50:45.784Z,89.00
2018-03-20T04:53:13.392Z,89.70
2018-03-20T04:55:41.020Z,90.10
2018-03-20T04:58:08.608Z,90.20
2018-03-20T05:00:36.192Z,90.80
2018-03-20T05:03:03.811Z,90.50
2018-03-20T05:05:31.422Z,90.70
2018-03-20T05:07:59.012Z,90.80
2018-03-20T05:10:26.597Z,90.90
2018-03-20T05:12:54.949Z,90.80
2018-03-20T05:15:22.575Z,90.80
2018-03-20T05:18:04.907Z,91.00
2018-03-20T05:20:50.006Z,91.30
2018-03-20T05:23:18.956Z,91.50
2018-03-20T05:25:46.632Z,91.50
2018-03-20T05:28:14.248Z,91.60
2018-03-20T05:30:41.891Z,92.00
2018-03-20T05:33:09.508Z,92.10
2018-03-20T05:35:37.170Z,92.20
2018-03-20T05:38:04.773Z,92.10
2018-03-20T05:40:33.236Z,92.10
2018-03-20T05:43:00.851Z,92.10
2018-03-20T05:45:29.229Z,92.20
2018-03-20T05:48:03.259Z,92.10
2018-03-20T05:50:46.551Z,92.10
2018-03-20T05:53:14.940Z,92.20
2018-03-20T05:55:43.299Z,92.60
2018-03-20T05:58:10.920Z,92.60
2018-03-20T06:00:38.594Z,92.60
2018-03-20T06:03:06.222Z,92.90
2018-03-20T06:05:33.820Z,93.30
2018-03-20T06:08:01.504Z,93.70
2018-03-20T06:10:29.142Z,93.60
2018-03-20T06:12:56.758Z,93.50
2018-03-20T06:15:24.368Z,93.40
2018-03-20T06:17:52.008Z,93.40
2018-03-20T06:20:19.616Z,93.20
2018-03-20T06:22:47.245Z,93.20
2018-03-20T06:25:14.865Z,93.00
2018-03-20T06:27:42.512Z,92.80
2018-03-20T06:30:10.178Z,92.70
2018-03-20T06:32:37.840Z,92.50
2018-03-20T06:35:05.487Z,92.40
2018-03-20T06:37:33.930Z,92.10
2018-03-20T06:40:01.617Z,92.10
2018-03-20T06:42:29.241Z,92.00
2018-03-20T06:44:56.916Z,91.90
2018-03-20T06:47:24.551Z,91.70
2018-03-20T06:49:52.181Z,91.50
2018-03-20T06:52:19.913Z,91.40
2018-03-20T06:54:47.577Z,91.30
2018-03-20T06:57:15.213Z,91.00
2018-03-20T06:59:42.978Z,91.00
2018-03-20T07:02:10.833Z,91.10
2018-03-20T07:04:38.526Z,91.00
2018-03-20T07:07:06.156Z,91.00
2018-03-20T07:09:34.569Z,90.80
2018-03-20T07:12:02.202Z,90.80
2018-03-20T07:14:29.851Z,90.60
2018-03-20T07:16:58.463Z,90.30
2018-03-20T07:19:26.071Z,90.10
2018-03-20T07:21:53.677Z,90.10
2018-03-20T07:24:21.312Z,89.80
2018-03-20T07:26:48.920Z,89.40
2018-03-20T07:29:16.542Z,89.40
2018-03-20T07:31:44.204Z,88.90
2018-03-20T07:34:11.823Z,89.20
2018-03-20T07:36:39.564Z,88.00
2018-03-20T07:39:07.241Z,87.30
2018-03-20T07:41:34.866Z,87.20
2018-03-20T07:44:02.486Z,86.50
2018-03-20T07:46:30.101Z,86.80
2018-03-20T07:48:58.048Z,85.70
2018-03-20T07:51:27.259Z,84.90
2018-03-20T07:53:54.844Z,84.90
2018-03-20T07:56:22.656Z,83.90
2018-03-20T07:58:50.273Z,83.20
2018-03-20T08:01:17.881Z,83.30
2018-03-20T08:03:45.468Z,82.40
2018-03-20T08:06:13.069Z,81.50
2018-03-20T08:08:40.737Z,82.10
2018-03-20T08:11:09.426Z,80.90
2018-03-20T08:13:37.271Z,78.80
2018-03-20T08:16:05.811Z,78.90
2018-03-20T08:18:34.817Z,78.80
2018-03-20T08:21:03.108Z,77.90
2018-03-20T08:23:30.768Z,77.40
2018-03-20T08:25:58.392Z,76.80
2018-03-20T08:28:26.074Z,75.90
2018-03-20T08:30:53.756Z,76.20
2018-03-20T08:33:21.367Z,75.90
2018-03-20T08:35:50.154Z,75.60
2018-03-20T08:38:18.779Z,74.90
2018-03-20T08:40:46.513Z,74.90
2018-03-20T08:43:14.163Z,73.20
2018-03-20T08:45:41.779Z,73.40
2018-03-20T08:48:09.387Z,72.80
2018-03-20T08:50:37.049Z,72.40
2018-03-20T08:53:04.689Z,72.20
2018-03-20T08:55:32.541Z,70.80
2018-03-20T08:58:00.899Z,69.50
2018-03-20T09:00:28.601Z,69.50
2018-03-20T09:02:56.318Z,68.30
2018-03-20T09:05:24.032Z,66.80
2018-03-20T09:07:51.690Z,65.90
2018-03-20T09:10:19.334Z,65.50
2018-03-20T09:12:47.032Z,64.60
2018-03-20T09:15:16.204Z,64.70
2018-03-20T09:17:46.932Z,63.20
2018-03-20T09:20:14.657Z,62.30
2018-03-20T09:22:42.329Z,62.00
2018-03-20T09:25:09.931Z,62.30
2018-03-20T09:27:37.571Z,62.00
2018-03-20T09:30:05.265Z,59.90
2018-03-20T09:32:32.885Z,58.80
2018-03-20T09:35:00.491Z,58.80
2018-03-20T09:37:28.746Z,56.40
2018-03-20T09:39:56.333Z,56.70
2018-03-20T09:42:23.954Z,55.90
2018-03-20T09:44:51.563Z,53.90
2018-03-20T09:47:20.046Z,52.60
2018-03-20T09:49:48.554Z,52.80
2018-03-20T09:52:18.390Z,53.80
2018-03-20T09:54:46.054Z,53.50
2018-03-20T09:57:13.858Z,52.00
2018-03-20T09:59:41.514Z,51.30
2018-03-20T10:02:09.130Z,51.10
2018-03-20T10:04:36.783Z,50.90
2018-03-20T10:07:05.175Z,49.30
2018-03-20T10:09:32.805Z,49.20
2018-03-20T10:12:00.457Z,48.70
2018-03-20T10:14:28.085Z,48.80
2018-03-20T10:16:56.886Z,48.10
2018-03-20T10:19:25.386Z,47.80
2018-03-20T10:21:53.011Z,47.70
2018-03-20T10:24:20.666Z,46.80
2018-03-20T10:26:48.291Z,46.80
2018-03-20T10:29:15.969Z,44.90
2018-03-20T10:31:43.560Z,46.00
2018-03-20T10:34:11.352Z,45.30
2018-03-20T10:36:38.954Z,45.10
2018-03-20T10:39:07.448Z,45.50
2018-03-20T10:41:35.311Z,45.00
2018-03-20T10:44:03.106Z,45.30
2018-03-20T10:46:31.599Z,44.70
2018-03-20T10:48:59.291Z,44.70
2018-03-20T10:51:26.918Z,46.00
2018-03-20T10:53:54.676Z,44.50
2018-03-20T10:56:23.301Z,42.50
2018-03-20T10:58:50.935Z,43.10
2018-03-20T11:01:24.321Z,42.80
2018-03-20T11:03:51.961Z,42.60
2018-03-20T11:06:19.605Z,41.70
2018-03-20T11:08:47.321Z,39.70
2018-03-20T11:11:14.995Z,39.50
2018-03-20T11:13:42.680Z,40.00
2018-03-20T11:16:10.304Z,39.90
2018-03-20T11:18:38.054Z,40.70
2018-03-20T11:21:07.265Z,40.80
2018-03-20T11:23:34.906Z,40.30
2018-03-20T11:26:02.603Z,39.60
2018-03-20T11:28:30.302Z,40.80
2018-03-20T11:30:57.960Z,40.50
2018-03-20T11:33:25.598Z,39.90
2018-03-20T11:35:53.284Z,40.30
2018-03-20T11:38:21.032Z,41.10
2018-03-20T11:40:49.588Z,40.90
2018-03-20T11:43:17.691Z,40.90
2018-03-20T11:45:45.420Z,40.10
2018-03-20T11:48:13.033Z,39.00
2018-03-20T11:50:41.424Z,38.70
2018-03-20T11:53:10.690Z,39.70
2018-03-20T11:55:38.289Z,39.60
2018-03-20T11:58:06.821Z,38.90
2018-03-20T12:00:34.543Z,38.30
2018-03-20T12:03:03.225Z,38.00
2018-03-20T12:05:31.630Z,36.90
2018-03-20T12:07:59.342Z,36.90
2018-03-20T12:10:27.373Z,38.70
2018-03-20T12:12:55.933Z,38.10
2018-03-20T12:15:24.433Z,38.00
2018-03-20T12:17:53.933Z,37.80
2018-03-20T12:20:21.530Z,37.10
2018-03-20T12:22:50.304Z,36.70
2018-03-20T12:25:18.701Z,36.70
2018-03-20T12:27:47.314Z,36.60
2018-03-20T12:30:14.945Z,35.50
2018-03-20T12:32:45.268Z,34.60
2018-03-20T12:35:13.324Z,34.60
2018-03-20T12:37:41.025Z,33.40
2018-03-20T12:40:10.184Z,33.00
2018-03-20T12:42:44.483Z,32.20
2018-03-20T12:45:12.557Z,32.60
2018-03-20T12:47:40.703Z,32.90
2018-03-20T12:50:08.289Z,31.50
2018-03-20T12:52:36.076Z,31.00
2018-03-20T12:55:03.922Z,30.90
2018-03-20T12:57:31.556Z,31.40
2018-03-20T12:59:59.988Z,32.80
2018-03-20T13:02:28.396Z,32.80
2018-03-20T13:04:56.000Z,34.00
2018-03-20T13:07:23.574Z,33.40
2018-03-20T13:09:52.072Z,32.60
2018-03-20T13:12:19.736Z,32.60
2018-03-20T13:14:47.325Z,31.40
2018-03-20T13:17:15.264Z,31.70
2018-03-20T13:19:42.897Z,31.20
2018-03-20T13:22:12.530Z,30.50
2018-03-20T13:24:40.849Z,31.20
2018-03-20T13:27:08.677Z,31.10
2018-03-20T13:29:36.344Z,30.50
2018-03-20T13:32:05.423Z,30.00
2018-03-20T13:34:34.004Z,30.00
2018-03-20T13:37:01.599Z,30.10
2018-03-20T13:39:29.246Z,29.20
2018-03-20T13:41:57.737Z,28.80
2018-03-20T13:44:26.188Z,28.60
2018-03-20T13:46:53.968Z,28.60
2018-03-20T13:49:21.654Z,29.10
2018-03-20T13:51:50.116Z,29.40
2018-03-20T13:54:17.794Z,29.40
2018-03-20T13:56:45.523Z,30.40
2018-03-20T13:59:13.154Z,29.50
2018-03-20T14:01:40.750Z,28.80
2018-03-20T14:04:08.417Z,28.20
2018-03-20T14:06:35.979Z,28.10
2018-03-20T14:09:03.837Z,28.10
2018-03-20T14:11:32.385Z,28.90
2018-03-20T14:14:00.752Z,28.70
2018-03-20T14:16:28.369Z,28.60
2018-03-20T14:18:56.153Z,29.00
2018-03-20T14:21:23.769Z,29.30
2018-03-20T14:23:52.354Z,28.80
2018-03-20T14:26:20.167Z,28.80
2018-03-20T14:28:47.909Z,27.90
2018-03-20T14:31:16.285Z,27.30
2018-03-20T14:33:44.756Z,27.50
2018-03-20T14:36:14.032Z,27.20
2018-03-20T14:38:42.398Z,27.20
2018-03-20T14:41:10.712Z,26.60
2018-03-20T14:43:38.395Z,26.10
2018-03-20T14:46:06.960Z,26.70
2018-03-20T14:48:34.580Z,26.70
2018-03-20T14:51:02.270Z,25.80
2018-03-20T14:53:30.457Z,25.20
2018-03-20T14:55:58.049Z,24.60
2018-03-20T14:58:26.561Z,24.70
2018-03-20T15:00:54.818Z,24.70
2018-03-20T15:03:22.577Z,25.00
2018-03-20T15:05:51.219Z,24.40
2018-03-20T15:08:20.071Z,24.60
2018-03-20T15:10:47.808Z,25.00
2018-03-20T15:13:15.476Z,26.10
2018-03-20T15:15:43.546Z,26.00
2018-03-20T15:18:12.582Z,23.70
2018-03-20T15:20:40.966Z,23.30
2018-03-20T15:23:08.568Z,24.40
2018-03-20T15:25:36.251Z,25.00
2018-03-20T15:28:03.983Z,25.30
2018-03-20T15:30:32.421Z,25.20
2018-03-20T15:33:00.081Z,25.60
2018-03-20T15:35:27.720Z,26.10
2018-03-20T15:37:56.355Z,25.50
2018-03-20T15:40:24.018Z,26.00
2018-03-20T15:42:51.676Z,25.70
2018-03-20T15:45:20.178Z,25.80
2018-03-20T15:47:49.096Z,26.00
2018-03-20T15:50:17.598Z,26.60
2018-03-20T15:52:45.222Z,26.50
2018-03-20T15:55:12.836Z,26.20
2018-03-20T15:57:40.536Z,25.60
2018-03-20T16:00:10.214Z,25.00
2018-03-20T16:02:37.850Z,24.90
2018-03-20T16:05:05.470Z,25.30
2018-03-20T16:07:33.070Z,25.60
2018-03-20T16:10:01.722Z,25.50
2018-03-20T16:12:29.922Z,25.80
2018-03-20T16:14:57.620Z,26.40
2018-03-20T16:17:26.239Z,27.00
2018-03-20T16:19:54.065Z,26.70
2018-03-20T16:22:21.908Z,26.40
2018-03-20T16:24:49.539Z,26.80
2018-03-20T16:27:17.230Z,26.40
2018-03-20T16:29:44.991Z,26.10
2018-03-20T16:32:12.807Z,26.00
2018-03-20T16:34:40.521Z,25.80
2018-03-20T16:37:08.522Z,25.80
2018-03-20T16:39:36.262Z,25.30
2018-03-20T16:42:03.933Z,25.30
2018-03-20T16:44:31.850Z,25.70
2018-03-20T16:46:59.649Z,25.30
2018-03-20T16:49:27.349Z,27.20
2018-03-20T16:51:55.141Z,27.30
2018-03-20T16:54:22.793Z,28.00
2018-03-20T16:56:50.513Z,28.00
2018-03-20T16:59:19.004Z,29.60
2018-03-20T17:01:47.577Z,29.60
2018-03-20T17:04:16.034Z,30.00
2018-03-20T17:06:43.652Z,30.20
2018-03-20T17:09:12.040Z,32.00
2018-03-20T17:11:40.064Z,32.00
2018-03-20T17:14:07.767Z,33.10
2018-03-20T17:16:36.154Z,34.70
2018-03-20T17:19:03.798Z,34.70
2018-03-20T17:21:31.540Z,35.00
2018-03-20T17:23:59.178Z,35.40
2018-03-20T17:26:27.654Z,36.10
2018-03-20T17:28:56.104Z,36.30
2018-03-20T17:31:24.520Z,36.40
2018-03-20T17:33:52.283Z,36.40
2018-03-20T17:36:20.644Z,36.90
2018-03-20T17:38:49.754Z,37.20
2018-03-20T17:41:18.275Z,37.60
2018-03-20T17:43:45.917Z,37.50
2018-03-20T17:46:14.320Z,37.90
2018-03-20T17:48:41.979Z,37.80
2018-03-20T17:51:09.704Z,38.10
2018-03-20T17:53:37.303Z,38.40
2018-03-20T17:56:05.776Z,39.00
2018-03-20T17:58:33.393Z,38.90
2018-03-20T18:01:01.088Z,39.20
2018-03-20T18:03:28.671Z,39.30
2018-03-20T18:05:57.020Z,39.70
2018-03-20T18:08:24.639Z,39.50
2018-03-20T18:10:53.032Z,40.10
2018-03-20T18:13:20.683Z,40.10
2018-03-20T18:15:48.524Z,40.00
2018-03-20T18:18:16.104Z,40.30
2018-03-20T18:20:44.503Z,40.80
2018-03-20T18:23:12.881Z,40.10
2018-03-20T18:25:40.483Z,40.10
2018-03-20T18:28:08.170Z,40.40
2018-03-20T18:30:38.917Z,40.30
2018-03-20T18:33:07.273Z,40.60
2018-03-20T18:35:34.890Z,41.00
2018-03-20T18:38:02.562Z,41.50
2018-03-20T18:40:31.035Z,42.10
2018-03-20T18:42:58.690Z,42.10
2018-03-20T18:45:26.392Z,42.60
2018-03-20T18:47:54.802Z,43.00
2018-03-20T18:50:22.503Z,43.00
2018-03-20T18:52:50.456Z,43.40
2018-03-20T18:55:18.094Z,43.80
2018-03-20T18:57:46.469Z,44.20
2018-03-20T19:00:14.201Z,44.20
2018-03-20T19:02:43.963Z,44.40
2018-03-20T19:05:12.384Z,44.40
2018-03-20T19:07:40.135Z,44.70
2018-03-20T19:10:07.769Z,44.60
2018-03-20T19:12:35.717Z,44.90
2018-03-20T19:15:03.683Z,45.40
2018-03-20T19:17:32.224Z,46.10
2018-03-20T19:19:59.932Z,45.50
2018-03-20T19:22:27.690Z,45.60
2018-03-20T19:24:55.514Z,45.90
2018-03-20T19:27:23.412Z,46.30
2018-03-20T19:29:51.199Z,46.50
2018-03-20T19:32:19.155Z,46.90
2018-03-20T19:34:46.946Z,47.80
2018-03-20T19:37:15.134Z,48.80
2018-03-20T19:39:42.985Z,49.70
2018-03-20T19:42:10.714Z,50.00
2018-03-20T19:44:39.196Z,51.00
2018-03-20T19:47:06.971Z,50.90
2018-03-20T19:49:34.731Z,51.30
2018-03-20T19:52:02.513Z,51.80
2018-03-20T19:54:30.347Z,52.00
2018-03-20T19:56:58.161Z,52.70
2018-03-20T19:59:26.005Z,53.10
2018-03-20T20:01:53.742Z,53.30
2018-03-20T20:04:21.695Z,53.70
2018-03-20T20:06:49.597Z,54.50
2018-03-20T20:09:18.485Z,55.00
2018-03-20T20:11:46.534Z,55.50
2018-03-20T20:14:14.260Z,55.70
2018-03-20T20:16:42.052Z,56.00
2018-03-20T20:19:09.824Z,56.40
2018-03-20T20:21:38.562Z,56.70
2018-03-20T20:24:06.278Z,57.00
2018-03-20T20:26:34.026Z,57.70
2018-03-20T20:29:01.793Z,58.00
2018-03-20T20:31:29.596Z,58.60
2018-03-20T20:33:58.611Z,58.40
2018-03-20T20:36:26.329Z,59.20
2018-03-20T20:38:54.875Z,59.50
2018-03-20T20:41:22.541Z,59.50
2018-03-20T20:43:50.233Z,60.00
2018-03-20T20:46:18.864Z,61.10
2018-03-20T20:48:46.563Z,61.10
2018-03-20T20:51:14.220Z,61.10
2018-03-20T20:53:42.172Z,61.70
2018-03-20T20:56:09.855Z,62.30
2018-03-20T20:58:37.527Z,62.80
2018-03-20T21:01:05.192Z,63.30
2018-03-20T21:03:32.846Z,64.10
2018-03-20T21:06:00.516Z,64.50
2018-03-20T21:08:28.980Z,65.90
2018-03-20T21:10:57.360Z,67.20
2018-03-20T21:13:25.824Z,67.00
2018-03-20T21:15:54.234Z,67.10
2018-03-20T21:18:21.875Z,67.10
2018-03-20T21:20:49.564Z,67.50
2018-03-20T21:23:20.660Z,68.40
2018-03-20T21:25:48.284Z,68.40
2018-03-20T21:28:15.917Z,68.80
2018-03-20T21:30:43.539Z,68.80
2018-03-20T21:33:11.133Z,69.50
2018-03-20T21:35:38.738Z,69.80
2018-03-20T21:38:07.082Z,70.70
2018-03-20T21:40:34.655Z,70.70
2018-03-20T21:43:02.240Z,71.40
2018-03-20T21:45:29.895Z,72.00
2018-03-20T21:47:58.271Z,73.50
2018-03-20T21:50:25.983Z,73.30
2018-03-20T21:52:53.564Z,73.70
2018-03-20T21:55:21.186Z,74.10
2018-03-20T21:57:49.610Z,75.60
2018-03-20T22:00:17.246Z,75.50
2018-03-20T22:02:45.673Z,76.90
2018-03-20T22:05:13.293Z,76.90
2018-03-20T22:07:41.635Z,77.90
2018-03-20T22:10:09.310Z,77.90
2018-03-20T22:12:36.861Z,78.30
2018-03-20T22:15:04.487Z,79.20
2018-03-20T22:17:32.069Z,79.70
2018-03-20T22:19:59.668Z,79.70
2018-03-20T22:22:27.250Z,80.50
2018-03-20T22:24:54.829Z,81.10
2018-03-20T22:27:23.190Z,83.20
2018-03-20T22:29:50.780Z,83.20
2018-03-20T22:32:19.124Z,83.50
2018-03-20T22:34:46.706Z,83.40
2018-03-20T22:37:14.378Z,84.40
2018-03-20T22:39:41.969Z,85.70
2018-03-20T22:42:10.376Z,85.80
2018-03-20T22:44:37.997Z,85.80
2018-03-20T22:47:05.593Z,86.10
2018-03-20T22:49:33.206Z,87.50
2018-03-20T22:52:01.397Z,87.30
2018-03-20T22:54:29.010Z,87.40
2018-03-20T22:56:57.167Z,87.90
2018-03-20T22:59:24.770Z,87.90
2018-03-20T23:01:52.371Z,88.10
2018-03-20T23:04:20.000Z,88.70
2018-03-20T23:06:47.652Z,88.10
2018-03-20T23:09:15.229Z,88.20
2018-03-20T23:11:42.812Z,88.10
2018-03-20T23:14:10.393Z,87.60
2018-03-20T23:16:37.978Z,87.10
2018-03-20T23:19:05.589Z,86.60
2018-03-20T23:21:33.176Z,85.70
2018-03-20T23:24:00.824Z,85.60
2018-03-20T23:26:29.183Z,85.70
2018-03-20T23:28:56.767Z,85.70
2018-03-20T23:31:25.264Z,85.30
2018-03-20T23:33:52.871Z,86.10
2018-03-20T23:36:21.327Z,86.30
2018-03-20T23:38:48.940Z,86.30
2018-03-20T23:41:17.293Z,86.40
2018-03-20T23:43:44.874Z,86.40
2018-03-20T23:46:13.215Z,87.30
2018-03-20T23:48:40.769Z,87.30
2018-03-20T23:51:08.340Z,87.30
2018-03-20T23:53:35.897Z,88.10
2018-03-20T23:56:03.456Z,88.20
2018-03-20T23:58:31.043Z,89.10
